Bogotá, Colombia

12:10 AM COT en Octubre 23, 2014 (GMT -0500)
Campin | Change Station
CLOSE
Current Station
Estación meteorológica personal
Location: Bogota, DC
Altura: 8369 ft
Estaciones meteorológicas cercanas

Alt 8369 ft 4.65 °N, 74.08 °W | Updated 2 seconds ago

Light Drizzle
Llovizna débil
54.3 ° F
Sensación térmica 54.3 ° F
N
0.0
Viento Variable Viento desde Norte
Gusts 0.7 mph

Hoy
Alta -- | Baja -- ° F
--% Posibilidad de precipitaciones
Ayer
Alta -- | Baja -- ° F
Precip. -- pul
5:41 AM 5:40 PM
Creciente menguante, 1% visible
Presión 30.40 pul
Visibilidad 6.2 Millas
Nubes Nubes dispersas 1700 ft
Nubes dispersas 7000 ft
Punto de rocío 50 ° F
Humedad 85%
Precipitaciones 0.00 pul
Espesor de la nieve No disponible.
UV 0 de una escala de 12
Polen No disponible.
Calidad del aire No disponible.
Flu Activity No disponible.
METAR SKBO 230500Z 06005KT 9999 -DZ SCT017 SCT070 12/09 A3040

More Conditions Fewer Conditions

Presión 30.40 pul
Visibilidad 6.2 Millas
Nubes Nubes dispersas 1700 ft
Nubes dispersas 7000 ft
Punto de rocío 50 ° F
Humedad 85%
Precipitaciones 0.00 pul
Espesor de la nieve No disponible.
UV 0 de una escala de 12
Polen No disponible.
Calidad del aire No disponible.
Flu Activity No disponible.
METAR SKBO 230500Z 06005KT 9999 -DZ SCT017 SCT070 12/09 A3040

More Conditions Fewer Conditions

10-Day Weather Forecast

Almanac

Astronomía

Oct. 23, 2014 Salida Puesta
Hora real 5:41 AM COT 5:40 PM COT
Crepúsculo civil 5:20 AM COT 6:01 PM COT
Crepúsculo náutico 4:55 AM COT 6:25 PM COT
Crepúsculo astronómico 4:31 AM COT 6:50 PM COT
Luna 5:23 AM COT 5:39 PM COT
Horas de luz 12h 41m
Horas de luz
11h 59m
Tomorrow will be 0m 14s shorter.
Creciente menguante, 1% of the Moon is Illuminated
Hoy
Creciente menguante
Oct 23
Nueva
Oct 30
Cuarto creciente
Nov 6
Luna llena
Nov 14
Cuarto menguante

Extremos de ayer

Máximos del país Bajas del país

Community

WunderPhotos

Upload Photos

1,764,170 ¡fotos cargadas!

Nearby

Calidad del aire

Not available.

Grosos de nieve

Not available.

Actividad de terremotos

Ciudad Distance Mag. Tiempo y dato
No hay informes recientes de la actividad sísmica.
Magnitud mínima muestra es 2,5.

Temperaturas de aguas costeras

Lugar Temperatura
Sin partes meteorológicos de las estaciones

Estaciones meteorológicas cercanas